createdAt,value
2023-05-11T00:02:27.327Z,1070.28804
2023-05-11T00:17:29.183Z,1078.90549
2023-05-11T00:32:30.898Z,1095.6669
2023-05-11T00:47:32.651Z,1121.33942
2023-05-11T01:02:34.446Z,1143.34521
2023-05-11T01:17:36.235Z,1183.74609
2023-05-11T01:32:39.577Z,1191.11162
2023-05-11T01:47:43.339Z,1191.11162
2023-05-11T02:02:45.279Z,1210.47928
2023-05-11T02:17:47.126Z,1192.17132
2023-05-11T02:32:48.884Z,1184.79272
2023-05-11T02:47:50.739Z,1202.87304
2023-05-11T03:02:52.529Z,1245.35367
2023-05-11T03:17:54.385Z,1267.73939
2023-05-11T03:32:56.165Z,1297.19315
2023-05-11T03:47:57.930Z,1342.68588
2023-05-11T04:02:59.779Z,1308.59426
2023-05-11T04:18:01.641Z,1298.45012
2023-05-11T04:33:03.387Z,1317.6013
2023-05-11T04:48:05.118Z,1332.00846
2023-05-11T05:03:06.881Z,1391.48546
2023-05-11T05:18:08.653Z,1410.52683
2023-05-11T05:33:10.449Z,1439.31308
2023-05-11T05:48:12.124Z,1485.5881
2023-05-11T06:03:13.848Z,1507.3121
2023-05-11T06:18:15.636Z,1545.55989
2023-05-11T06:33:17.341Z,1592.39503
2023-05-11T06:48:18.985Z,1614.45832
2023-05-11T07:03:20.619Z,1636.14213
2023-05-11T07:18:22.280Z,1675.00049
2023-05-11T07:33:23.934Z,1711.36703
2023-05-11T07:48:25.586Z,1731.26664
2023-05-11T08:03:27.372Z,1778.36811
2023-05-11T08:18:29.175Z,1814.48932
2023-05-11T08:33:37.763Z,1819.41665
2023-05-11T08:48:40.210Z,1766.64519
2023-05-11T09:03:41.920Z,1575.54429
2023-05-11T09:18:43.613Z,1526.19639
2023-05-11T09:33:45.351Z,1536.69774
2023-05-11T09:48:47.059Z,1572.77045
2023-05-11T10:03:48.969Z,1639.14422
2023-05-11T10:18:50.849Z,1709.18417
2023-05-11T10:33:52.581Z,1750.49037
2023-05-11T10:48:54.280Z,1830.60159
2023-05-11T11:03:55.973Z,1882.02297
2023-05-11T11:18:57.701Z,1947.67492
2023-05-11T11:33:59.491Z,1973.49093
2023-05-11T11:49:01.210Z,2019.59357
2023-05-11T12:04:03.180Z,2058.37224
2023-05-11T12:19:05.078Z,2087.22792
2023-05-11T12:34:06.801Z,2137.16159
2023-05-11T12:49:08.539Z,2182.41093
2023-05-11T13:04:10.248Z,2225.91413
2023-05-11T13:19:12.000Z,2235.1965
2023-05-11T13:34:13.745Z,2198.52388
2023-05-11T13:49:15.390Z,2214.87654
2023-05-11T14:04:17.046Z,2235.1965
2023-05-11T14:19:18.925Z,2225.91413
2023-05-11T14:34:20.620Z,2193.12653
2023-05-11T14:49:22.257Z,2175.32518
2023-05-11T15:04:23.976Z,2182.41093
2023-05-11T15:19:25.661Z,2194.9227
2023-05-11T15:34:27.353Z,2168.28529
2023-05-11T15:49:29.326Z,2132.06096
2023-05-11T16:04:31.021Z,2132.06096
2023-05-11T16:19:32.758Z,2118.57758
2023-05-11T16:34:34.440Z,2103.61118
2023-05-11T16:49:36.136Z,2093.7505
2023-05-11T17:04:37.843Z,2090.48412
2023-05-11T17:19:39.520Z,2050.49782
2023-05-11T17:34:41.242Z,2033.38442
2023-05-11T17:49:42.972Z,1988.13106
2023-05-11T18:04:44.668Z,1966.25142
2023-05-11T18:19:46.375Z,1864.99702
2023-05-11T18:34:48.141Z,1698.35284
2023-05-11T18:49:49.853Z,1685.53509
2023-05-11T19:04:51.615Z,1620.31488
2023-05-11T19:19:53.324Z,1550.92642
2023-05-11T19:34:55.116Z,1510.71075
2023-05-11T19:49:56.855Z,1479.02921
2023-05-11T20:04:58.596Z,1451.78816
2023-05-11T20:20:00.334Z,1409.04363
2023-05-11T20:35:02.165Z,1395.83385
2023-05-11T20:50:03.941Z,1382.86945
2023-05-11T21:05:05.695Z,1330.68571
2023-05-11T21:20:07.385Z,1312.43929
2023-05-11T21:35:09.082Z,1289.70214
2023-05-11T21:50:10.785Z,1274.97672
2023-05-11T22:05:12.474Z,1236.16287
2023-05-11T22:20:14.172Z,1194.29641
2023-05-11T22:35:15.959Z,1281.07125
2023-05-11T22:50:17.900Z,1300.97138
2023-05-11T23:05:19.771Z,1348.08904
2023-05-11T23:20:21.650Z,1412.01316
2023-05-11T23:35:23.513Z,1453.36277
2023-05-11T23:50:25.208Z,1527.06602
